createdAt,value
2023-04-06T00:00:15.685Z,13.20
2023-04-06T00:01:17.285Z,12.57
2023-04-06T00:02:18.862Z,12.67
2023-04-06T00:03:20.740Z,12.87
2023-04-06T00:04:22.489Z,13.73
2023-04-06T00:05:24.200Z,15.17
2023-04-06T00:06:25.830Z,12.07
2023-04-06T00:07:29.185Z,12.67
2023-04-06T00:08:31.087Z,13.60
2023-04-06T00:09:32.644Z,11.80
2023-04-06T00:10:34.469Z,14.00
2023-04-06T00:11:36.044Z,12.67
2023-04-06T00:12:37.558Z,12.90
2023-04-06T00:13:39.211Z,12.43
2023-04-06T00:14:41.730Z,11.73
2023-04-06T00:15:43.394Z,11.60
2023-04-06T00:16:45.035Z,13.37
2023-04-06T00:17:46.776Z,11.33
2023-04-06T00:18:48.406Z,13.50
2023-04-06T00:19:50.010Z,12.07
2023-04-06T00:20:52.142Z,11.73
2023-04-06T00:21:53.830Z,11.57
2023-04-06T00:22:56.154Z,11.93
2023-04-06T00:23:57.844Z,11.93
2023-04-06T00:24:59.389Z,12.83
2023-04-06T00:26:01.225Z,11.73
2023-04-06T00:27:03.085Z,11.73
2023-04-06T00:28:04.811Z,11.87
2023-04-06T00:29:06.985Z,11.30
2023-04-06T00:30:09.678Z,13.90
2023-04-06T00:31:11.298Z,12.77
2023-04-06T00:32:12.881Z,12.70
2023-04-06T00:33:14.530Z,11.00
2023-04-06T00:34:17.010Z,11.33
2023-04-06T00:35:18.728Z,13.40
2023-04-06T00:36:20.611Z,12.60
2023-04-06T00:37:22.170Z,12.93
2023-04-06T00:38:23.809Z,11.53
2023-04-06T00:39:25.458Z,11.20
2023-04-06T00:40:29.421Z,10.73
2023-04-06T00:41:31.323Z,11.17
2023-04-06T00:42:32.919Z,11.53
2023-04-06T00:43:34.583Z,12.37
2023-04-06T00:44:36.109Z,11.13
2023-04-06T00:45:39.719Z,11.33
2023-04-06T00:46:41.429Z,10.50
2023-04-06T00:47:43.217Z,12.10
2023-04-06T00:48:44.768Z,10.80
2023-04-06T00:49:46.385Z,10.07
2023-04-06T00:50:47.914Z,10.97
2023-04-06T00:51:49.545Z,11.97
2023-04-06T00:52:51.597Z,12.60
2023-04-06T00:53:53.283Z,12.00
2023-04-06T00:54:55.061Z,9.83
2023-04-06T00:55:56.610Z,12.33
2023-04-06T00:56:58.679Z,11.07
2023-04-06T00:58:02.180Z,11.53
2023-04-06T00:59:04.038Z,10.90
2023-04-06T01:00:06.259Z,10.33
2023-04-06T01:01:07.813Z,10.07
2023-04-06T01:02:10.212Z,10.23
2023-04-06T01:03:11.770Z,10.13
2023-04-06T01:04:13.349Z,11.37
2023-04-06T01:05:15.163Z,10.17
2023-04-06T01:06:17.333Z,8.70
2023-04-06T01:07:18.891Z,10.03
2023-04-06T01:08:21.066Z,9.13
2023-04-06T01:09:23.468Z,9.37
2023-04-06T01:10:29.468Z,10.30
2023-04-06T01:11:31.034Z,10.20
2023-04-06T01:12:32.655Z,9.60
2023-04-06T01:13:34.180Z,10.50
2023-04-06T01:14:35.916Z,10.40
2023-04-06T01:15:40.067Z,10.53
2023-04-06T01:16:42.565Z,10.87
2023-04-06T01:17:44.316Z,9.80
2023-04-06T01:18:45.947Z,9.20
2023-04-06T01:19:50.243Z,9.47
2023-04-06T01:20:51.806Z,9.67
2023-04-06T01:21:54.356Z,9.20
2023-04-06T01:22:55.935Z,8.70
2023-04-06T01:23:57.473Z,10.13
2023-04-06T01:24:59.073Z,10.50
2023-04-06T01:26:00.814Z,9.77
2023-04-06T01:27:02.634Z,9.87
2023-04-06T01:28:04.429Z,11.07
2023-04-06T01:29:06.225Z,9.23
2023-04-06T01:30:08.901Z,10.47
2023-04-06T01:31:10.825Z,9.93
2023-04-06T01:32:12.430Z,9.77
2023-04-06T01:33:14.099Z,11.87
2023-04-06T01:34:15.890Z,9.20
2023-04-06T01:35:20.046Z,9.97
2023-04-06T01:36:21.844Z,9.53
2023-04-06T01:37:23.398Z,10.00
2023-04-06T01:38:25.036Z,10.57
2023-04-06T01:39:27.082Z,11.30
2023-04-06T01:40:28.745Z,9.47
2023-04-06T01:41:30.409Z,9.13
2023-04-06T01:42:31.952Z,9.47
2023-04-06T01:43:33.526Z,10.20
2023-04-06T01:44:35.362Z,10.70
2023-04-06T01:45:36.943Z,10.27
2023-04-06T01:46:38.510Z,9.90
2023-04-06T01:47:40.213Z,11.67
2023-04-06T01:48:42.007Z,9.60
2023-04-06T01:49:43.537Z,10.60
2023-04-06T01:50:45.115Z,10.17
2023-04-06T01:51:46.646Z,10.90
2023-04-06T01:52:48.161Z,11.90
2023-04-06T01:53:50.297Z,10.87
2023-04-06T01:54:51.964Z,9.60
2023-04-06T01:55:53.537Z,9.67
2023-04-06T01:56:55.168Z,9.70
2023-04-06T01:57:56.840Z,12.87
2023-04-06T01:58:58.460Z,10.43
2023-04-06T02:00:00.348Z,9.87
2023-04-06T02:01:02.027Z,10.70
2023-04-06T02:02:03.734Z,10.47
2023-04-06T02:03:05.329Z,10.53
2023-04-06T02:04:06.878Z,9.43
2023-04-06T02:05:09.302Z,12.90
2023-04-06T02:06:11.107Z,9.23
2023-04-06T02:07:12.725Z,10.77
2023-04-06T02:08:14.244Z,11.03
2023-04-06T02:09:16.725Z,10.00
2023-04-06T02:10:18.534Z,12.07
2023-04-06T02:11:20.153Z,10.20
2023-04-06T02:12:21.729Z,11.77
2023-04-06T02:13:23.299Z,11.07
2023-04-06T02:14:28.059Z,11.87
2023-04-06T02:15:29.611Z,12.83
2023-04-06T02:16:31.598Z,11.83
2023-04-06T02:17:33.357Z,10.13
2023-04-06T02:18:35.049Z,11.13
2023-04-06T02:19:36.748Z,12.43
2023-04-06T02:20:38.377Z,13.97
2023-04-06T02:21:39.913Z,10.23
2023-04-06T02:22:41.687Z,11.23
2023-04-06T02:23:43.247Z,10.73
2023-04-06T02:24:44.856Z,11.83
2023-04-06T02:25:46.472Z,11.07
2023-04-06T02:26:48.025Z,11.57
2023-04-06T02:27:49.544Z,14.47
2023-04-06T02:28:51.196Z,9.63
2023-04-06T02:29:52.766Z,12.60
2023-04-06T02:30:54.288Z,11.37
2023-04-06T02:31:56.057Z,12.07
2023-04-06T02:32:57.648Z,11.93
2023-04-06T02:33:59.487Z,13.47
2023-04-06T02:35:01.472Z,11.20
2023-04-06T02:36:03.131Z,11.00
2023-04-06T02:37:04.685Z,11.97
2023-04-06T02:38:06.478Z,11.40
2023-04-06T02:39:08.240Z,11.97
2023-04-06T02:40:10.618Z,12.23
2023-04-06T02:41:12.132Z,10.37
2023-04-06T02:42:13.741Z,12.47
2023-04-06T02:43:16.447Z,12.40
2023-04-06T02:44:18.009Z,12.20
2023-04-06T02:45:19.619Z,12.63
2023-04-06T02:46:21.322Z,11.47
2023-04-06T02:47:22.940Z,13.20
2023-04-06T02:48:24.751Z,11.97
2023-04-06T02:49:26.303Z,13.47
2023-04-06T02:50:27.885Z,10.70
2023-04-06T02:51:29.517Z,11.53
2023-04-06T02:52:31.090Z,13.30
2023-04-06T02:53:32.670Z,12.20
2023-04-06T02:54:34.261Z,10.93
2023-04-06T02:55:35.963Z,12.00
2023-04-06T02:56:37.562Z,12.67
2023-04-06T02:57:39.257Z,13.00
2023-04-06T02:58:40.929Z,12.70
2023-04-06T02:59:42.558Z,13.63
2023-04-06T03:00:44.375Z,11.50
2023-04-06T03:01:46.003Z,13.27
2023-04-06T03:02:47.634Z,12.27
2023-04-06T03:03:49.359Z,13.70
2023-04-06T03:04:51.157Z,11.90
2023-04-06T03:05:52.836Z,12.27
2023-04-06T03:06:56.312Z,12.50
2023-04-06T03:07:57.884Z,12.67
2023-04-06T03:08:59.437Z,12.47
2023-04-06T03:10:01.135Z,12.73
2023-04-06T03:11:02.746Z,11.50
2023-04-06T03:12:04.454Z,12.37
2023-04-06T03:13:06.325Z,11.63
2023-04-06T03:14:07.953Z,13.90
2023-04-06T03:15:10.143Z,11.00
2023-04-06T03:16:11.900Z,13.90
2023-04-06T03:17:13.516Z,11.97
2023-04-06T03:18:15.137Z,13.27
2023-04-06T03:19:16.756Z,14.43
2023-04-06T03:20:18.428Z,15.13
2023-04-06T03:21:20.569Z,13.17
2023-04-06T03:22:22.112Z,12.70
2023-04-06T03:23:23.965Z,13.40
2023-04-06T03:24:25.577Z,12.83
2023-04-06T03:25:27.173Z,11.83
2023-04-06T03:26:28.722Z,12.90
2023-04-06T03:27:30.296Z,12.10
2023-04-06T03:28:31.915Z,13.70
2023-04-06T03:29:33.469Z,14.83
2023-04-06T03:30:35.757Z,14.90
2023-04-06T03:31:37.413Z,13.07
2023-04-06T03:32:39.058Z,12.93
2023-04-06T03:33:40.668Z,14.03
2023-04-06T03:34:42.215Z,11.43
2023-04-06T03:35:43.839Z,13.40
2023-04-06T03:36:46.277Z,11.80
2023-04-06T03:37:47.865Z,13.07
2023-04-06T03:38:49.470Z,13.77
2023-04-06T03:39:51.601Z,13.97
2023-04-06T03:40:53.169Z,13.23
2023-04-06T03:41:54.825Z,18.40
2023-04-06T03:42:56.362Z,14.50
2023-04-06T03:43:57.936Z,16.37
2023-04-06T03:45:00.032Z,15.40
2023-04-06T03:46:01.713Z,12.37
2023-04-06T03:47:03.505Z,14.37
2023-04-06T03:48:06.341Z,15.93
2023-04-06T03:49:08.342Z,15.37
2023-04-06T03:50:10.454Z,14.77
2023-04-06T03:51:12.009Z,16.37
2023-04-06T03:52:13.624Z,14.70
2023-04-06T03:53:15.179Z,15.93
2023-04-06T03:54:16.818Z,14.27
2023-04-06T03:55:18.630Z,15.53
2023-04-06T03:56:20.973Z,14.30
2023-04-06T03:57:22.599Z,12.73
2023-04-06T03:58:24.175Z,14.23
2023-04-06T03:59:25.890Z,13.93
2023-04-06T04:00:28.040Z,12.17
2023-04-06T04:01:29.943Z,13.53
2023-04-06T04:02:31.597Z,13.90
2023-04-06T04:03:33.292Z,12.63
2023-04-06T04:04:35.010Z,14.57
2023-04-06T04:05:36.867Z,13.80
2023-04-06T04:06:38.393Z,13.67
2023-04-06T04:07:40.042Z,12.67
2023-04-06T04:08:41.585Z,12.37
2023-04-06T04:09:43.123Z,13.63
2023-04-06T04:10:44.679Z,15.83
2023-04-06T04:11:46.348Z,13.70
2023-04-06T04:12:47.966Z,11.70
2023-04-06T04:13:49.569Z,13.73
2023-04-06T04:14:51.110Z,12.00
2023-04-06T04:15:52.687Z,11.20
2023-04-06T04:16:54.268Z,13.73
2023-04-06T04:17:56.235Z,16.17
2023-04-06T04:19:00.428Z,12.97
2023-04-06T04:20:02.238Z,13.33
2023-04-06T04:21:03.877Z,13.10
2023-04-06T04:22:05.997Z,12.60
2023-04-06T04:23:07.651Z,13.50
2023-04-06T04:24:09.157Z,11.90
2023-04-06T04:25:11.404Z,12.37
2023-04-06T04:26:13.111Z,13.73
2023-04-06T04:27:14.685Z,14.33
2023-04-06T04:28:16.540Z,13.53
2023-04-06T04:29:21.015Z,14.63
2023-04-06T04:30:22.630Z,13.53
2023-04-06T04:31:24.523Z,14.00
2023-04-06T04:32:28.381Z,13.17
2023-04-06T04:33:30.111Z,13.20
2023-04-06T04:34:32.157Z,12.03
2023-04-06T04:35:33.722Z,12.83
2023-04-06T04:36:35.314Z,11.23
2023-04-06T04:37:36.953Z,13.90
2023-04-06T04:38:38.482Z,11.50
2023-04-06T04:39:40.510Z,12.60
2023-04-06T04:40:42.044Z,12.20
2023-04-06T04:41:43.570Z,12.97
2023-04-06T04:42:45.939Z,12.30
2023-04-06T04:43:47.563Z,10.63
2023-04-06T04:44:49.196Z,12.70
2023-04-06T04:45:50.786Z,11.63
2023-04-06T04:46:53.050Z,12.30
2023-04-06T04:47:55.113Z,14.57
2023-04-06T04:48:57.003Z,10.00
2023-04-06T04:49:58.571Z,10.87
2023-04-06T04:51:01.190Z,11.23
2023-04-06T04:52:02.775Z,11.07
2023-04-06T04:53:06.955Z,11.70
2023-04-06T04:54:08.538Z,13.23
2023-04-06T04:55:10.116Z,13.47
2023-04-06T04:56:11.781Z,11.77
2023-04-06T04:57:13.612Z,13.80
2023-04-06T04:58:19.946Z,12.00
2023-04-06T04:59:21.553Z,16.23
2023-04-06T05:00:23.266Z,14.37
2023-04-06T05:01:24.866Z,11.47
2023-04-06T05:02:26.709Z,14.10
2023-04-06T05:03:28.943Z,13.83
2023-04-06T05:04:30.642Z,13.30
2023-04-06T05:05:32.166Z,12.77
2023-04-06T05:06:33.727Z,14.30
2023-04-06T05:07:35.348Z,13.50
2023-04-06T05:08:37.002Z,11.53
2023-04-06T05:09:38.590Z,11.80
2023-04-06T05:10:41.222Z,13.77
2023-04-06T05:11:42.872Z,12.00
2023-04-06T05:12:44.529Z,11.60
2023-04-06T05:13:46.253Z,15.07
2023-04-06T05:14:47.993Z,12.77
2023-04-06T05:15:49.815Z,13.87
2023-04-06T05:16:51.420Z,13.63
2023-04-06T05:17:53.197Z,13.50
2023-04-06T05:18:54.800Z,12.40
2023-04-06T05:19:56.614Z,13.80
2023-04-06T05:20:58.264Z,13.70
2023-04-06T05:21:59.806Z,12.93
2023-04-06T05:23:01.734Z,10.97
2023-04-06T05:24:03.619Z,14.17
2023-04-06T05:25:05.555Z,10.93
2023-04-06T05:26:07.225Z,12.40
2023-04-06T05:27:08.823Z,13.60
2023-04-06T05:28:10.487Z,14.77
2023-04-06T05:29:12.056Z,14.30
2023-04-06T05:30:13.931Z,13.67
2023-04-06T05:31:16.198Z,12.87
2023-04-06T05:32:17.906Z,14.07
2023-04-06T05:33:19.646Z,15.70
2023-04-06T05:34:21.299Z,13.37
2023-04-06T05:35:22.947Z,15.70
2023-04-06T05:36:24.665Z,11.90
2023-04-06T05:37:26.410Z,10.47
2023-04-06T05:38:28.238Z,12.40
2023-04-06T05:39:29.766Z,11.07
2023-04-06T05:40:31.300Z,11.97
2023-04-06T05:41:33.155Z,13.47
2023-04-06T05:42:42.221Z,13.57
2023-04-06T05:43:43.750Z,12.10
2023-04-06T05:44:45.344Z,12.60
2023-04-06T05:45:47.058Z,12.23
2023-04-06T05:46:48.714Z,13.27
2023-04-06T05:47:50.329Z,15.70
2023-04-06T05:48:51.902Z,10.50
2023-04-06T05:49:53.446Z,12.73
2023-04-06T05:50:55.777Z,12.83
2023-04-06T05:51:57.360Z,11.53
2023-04-06T05:52:58.879Z,10.63
2023-04-06T05:54:00.586Z,9.60
2023-04-06T05:55:02.169Z,12.60
2023-04-06T05:56:04.540Z,10.67
2023-04-06T05:57:06.175Z,12.00
2023-04-06T05:58:07.727Z,11.53
2023-04-06T05:59:10.001Z,10.70
2023-04-06T06:00:12.489Z,10.20
2023-04-06T06:01:14.125Z,11.33
2023-04-06T06:02:15.870Z,9.93
2023-04-06T06:03:17.504Z,12.87
2023-04-06T06:04:19.101Z,11.13
2023-04-06T06:05:20.880Z,12.57
2023-04-06T06:06:22.597Z,10.93
2023-04-06T06:07:24.867Z,11.67
2023-04-06T06:08:26.447Z,11.93
2023-04-06T06:09:28.066Z,10.50
2023-04-06T06:10:29.675Z,10.23
2023-04-06T06:11:31.476Z,12.57
2023-04-06T06:12:33.095Z,10.23
2023-04-06T06:13:34.608Z,9.97
2023-04-06T06:14:36.616Z,12.30
2023-04-06T06:15:38.167Z,11.03
2023-04-06T06:16:39.780Z,11.67
2023-04-06T06:17:41.419Z,10.43
2023-04-06T06:18:43.127Z,9.47
2023-04-06T06:19:44.648Z,11.50
2023-04-06T06:20:46.867Z,11.27
2023-04-06T06:21:48.472Z,10.90
2023-04-06T06:22:50.013Z,12.37
2023-04-06T06:23:51.614Z,11.87
2023-04-06T06:24:53.161Z,9.90
2023-04-06T06:25:54.820Z,9.37
2023-04-06T06:26:56.408Z,9.13
2023-04-06T06:27:59.497Z,11.67
2023-04-06T06:29:01.019Z,12.10
2023-04-06T06:30:03.523Z,10.63
2023-04-06T06:31:05.171Z,14.27
2023-04-06T06:32:06.942Z,11.03
2023-04-06T06:33:08.641Z,12.30
2023-04-06T06:34:11.344Z,11.53
2023-04-06T06:35:12.906Z,10.93
2023-04-06T06:36:14.599Z,10.67
2023-04-06T06:37:16.177Z,11.93
2023-04-06T06:38:18.225Z,11.37
2023-04-06T06:39:19.808Z,12.80
2023-04-06T06:40:24.812Z,12.83
2023-04-06T06:41:27.197Z,10.53
2023-04-06T06:42:28.846Z,11.90
2023-04-06T06:43:30.674Z,12.23
2023-04-06T06:44:32.347Z,12.17
2023-04-06T06:45:34.352Z,11.50
2023-04-06T06:46:35.963Z,10.03
2023-04-06T06:47:37.677Z,9.97
2023-04-06T06:48:39.315Z,9.77
2023-04-06T06:49:40.870Z,11.33
2023-04-06T06:50:42.515Z,11.40
2023-04-06T06:51:44.185Z,10.27
2023-04-06T06:52:45.758Z,11.00
2023-04-06T06:53:47.292Z,11.53
2023-04-06T06:54:48.934Z,10.63
2023-04-06T06:55:50.713Z,12.17
2023-04-06T06:56:52.217Z,13.13
2023-04-06T06:57:54.453Z,12.70
2023-04-06T06:58:56.101Z,10.27
2023-04-06T06:59:57.685Z,14.50
2023-04-06T07:00:59.883Z,13.50
2023-04-06T07:02:01.662Z,13.53
2023-04-06T07:03:03.379Z,9.50
2023-04-06T07:04:05.611Z,12.03
2023-04-06T07:05:24.287Z,10.77
2023-04-06T07:06:28.892Z,8.57
2023-04-06T07:07:32.723Z,9.03
2023-04-06T07:08:34.278Z,10.90
2023-04-06T07:09:36.770Z,7.03
2023-04-06T07:10:38.276Z,6.63
2023-04-06T07:11:39.850Z,7.67
2023-04-06T07:12:41.390Z,13.03
2023-04-06T07:13:43.766Z,9.87
2023-04-06T07:14:45.345Z,7.23
2023-04-06T07:15:46.957Z,8.33
2023-04-06T07:16:49.894Z,10.80
2023-04-06T07:17:51.715Z,8.53
2023-04-06T07:18:53.258Z,7.47
2023-04-06T07:19:54.886Z,7.17
2023-04-06T07:20:56.688Z,8.40
2023-04-06T07:21:58.398Z,9.53
2023-04-06T07:22:59.973Z,6.23
2023-04-06T07:24:01.598Z,6.90
2023-04-06T07:25:03.250Z,9.30
2023-04-06T07:26:04.924Z,7.17
2023-04-06T07:27:06.973Z,9.27
2023-04-06T07:28:08.666Z,7.47
2023-04-06T07:29:10.262Z,7.47
2023-04-06T07:30:12.307Z,7.37
2023-04-06T07:31:13.881Z,7.10
2023-04-06T07:32:15.889Z,6.93
2023-04-06T07:33:17.554Z,6.67
2023-04-06T07:34:19.170Z,6.30
2023-04-06T07:35:21.076Z,7.57
2023-04-06T07:36:22.677Z,7.90
2023-04-06T07:37:24.420Z,11.43
2023-04-06T07:38:26.330Z,9.50
2023-04-06T07:39:28.140Z,10.30
2023-04-06T07:40:32.834Z,8.20
2023-04-06T07:41:34.600Z,8.43
2023-04-06T07:42:36.221Z,11.17
2023-04-06T07:43:37.850Z,11.03
2023-04-06T07:44:39.473Z,10.07
2023-04-06T07:45:41.253Z,9.27
2023-04-06T07:46:42.897Z,8.87
2023-04-06T07:47:44.682Z,10.00
2023-04-06T07:48:46.474Z,10.70
2023-04-06T07:49:48.068Z,13.17
2023-04-06T07:50:52.645Z,11.20
2023-04-06T07:51:54.682Z,12.07
2023-04-06T07:52:56.340Z,11.40
2023-04-06T07:53:57.960Z,10.67
2023-04-06T07:55:00.198Z,9.07
2023-04-06T07:56:01.812Z,11.73
2023-04-06T07:57:03.439Z,8.23
2023-04-06T07:58:05.045Z,9.13
2023-04-06T07:59:06.688Z,9.70
2023-04-06T08:00:10.689Z,10.37
2023-04-06T08:01:12.282Z,11.10
2023-04-06T08:02:13.901Z,11.47
2023-04-06T08:03:15.616Z,9.73
2023-04-06T08:04:17.483Z,8.10
2023-04-06T08:05:19.206Z,9.73
2023-04-06T08:06:20.868Z,14.00
2023-04-06T08:07:22.438Z,8.47
2023-04-06T08:08:24.091Z,10.40
2023-04-06T08:09:25.807Z,8.57
2023-04-06T08:10:27.368Z,11.83
2023-04-06T08:11:29.100Z,8.20
2023-04-06T08:12:30.928Z,17.70
2023-04-06T08:13:32.510Z,11.27
2023-04-06T08:14:34.096Z,14.37
2023-04-06T08:15:35.901Z,7.67
2023-04-06T08:16:37.547Z,8.50
2023-04-06T08:17:39.195Z,11.73
2023-04-06T08:18:40.906Z,8.53
2023-04-06T08:19:45.137Z,8.97
2023-04-06T08:20:46.771Z,8.00
2023-04-06T08:21:48.426Z,7.70
2023-04-06T08:22:52.263Z,7.60
2023-04-06T08:23:55.138Z,7.73
2023-04-06T08:24:56.754Z,7.23
2023-04-06T08:25:58.363Z,6.17
2023-04-06T08:26:59.995Z,6.27
2023-04-06T08:28:01.609Z,7.47
2023-04-06T08:29:04.970Z,8.00
2023-04-06T08:30:07.138Z,6.67
2023-04-06T08:31:09.089Z,5.90
2023-04-06T08:32:11.779Z,8.53
2023-04-06T08:33:13.385Z,6.20
2023-04-06T08:34:15.372Z,8.00
2023-04-06T08:35:17.651Z,6.90
2023-04-06T08:36:23.685Z,8.73
2023-04-06T08:37:25.803Z,7.27
2023-04-06T08:38:27.333Z,6.70
2023-04-06T08:39:29.310Z,8.63
2023-04-06T08:40:31.159Z,7.13
2023-04-06T08:41:33.454Z,7.33
2023-04-06T08:42:40.688Z,8.40
2023-04-06T08:43:49.428Z,7.70
2023-04-06T08:44:53.518Z,6.60
2023-04-06T08:45:55.352Z,9.77
2023-04-06T08:46:57.894Z,8.03
2023-04-06T08:48:02.815Z,6.87
2023-04-06T08:49:07.552Z,7.13
2023-04-06T08:50:11.559Z,8.60
2023-04-06T08:51:14.002Z,7.60
2023-04-06T08:52:20.016Z,6.53
2023-04-06T08:53:24.043Z,8.00
2023-04-06T08:54:26.244Z,6.93
2023-04-06T08:55:28.333Z,6.47
2023-04-06T08:56:30.112Z,7.73
2023-04-06T08:57:33.237Z,7.60
2023-04-06T08:58:40.867Z,7.33
2023-04-06T08:59:43.300Z,9.07
2023-04-06T09:00:45.226Z,7.90
2023-04-06T09:01:47.401Z,6.77
2023-04-06T09:02:50.898Z,6.23
2023-04-06T09:03:57.227Z,6.23
2023-04-06T09:04:59.891Z,6.37
2023-04-06T09:06:01.966Z,8.17
2023-04-06T09:07:03.532Z,5.90
2023-04-06T09:08:05.386Z,7.23
2023-04-06T09:09:07.564Z,7.27
2023-04-06T09:10:09.738Z,6.67
2023-04-06T09:11:11.928Z,7.30
2023-04-06T09:12:26.617Z,7.83
2023-04-06T09:13:28.198Z,6.50
2023-04-06T09:14:40.419Z,8.67
2023-04-06T09:15:42.071Z,8.03
2023-04-06T09:16:46.283Z,8.00
2023-04-06T09:17:48.120Z,8.77
2023-04-06T09:18:50.402Z,5.23
2023-04-06T09:19:52.814Z,7.17
2023-04-06T09:21:05.714Z,6.67
2023-04-06T09:22:10.779Z,8.00
2023-04-06T09:23:19.675Z,5.93
2023-04-06T09:24:26.414Z,9.63
2023-04-06T09:25:28.076Z,9.53
2023-04-06T09:26:30.063Z,8.23
2023-04-06T09:27:33.472Z,6.57
2023-04-06T09:28:46.645Z,6.80
2023-04-06T09:29:48.242Z,6.73
2023-04-06T09:30:53.103Z,6.37
2023-04-06T09:32:06.594Z,6.77
2023-04-06T09:33:08.358Z,7.67
2023-04-06T09:34:10.199Z,6.83
2023-04-06T09:35:12.236Z,7.10
2023-04-06T09:36:16.518Z,9.60
2023-04-06T09:37:19.468Z,6.93
2023-04-06T09:38:21.093Z,8.63
2023-04-06T09:39:24.309Z,7.20
2023-04-06T09:40:26.193Z,6.20
2023-04-06T09:41:29.062Z,6.47
2023-04-06T09:42:30.821Z,6.93
2023-04-06T09:43:32.424Z,6.37
2023-04-06T09:44:34.033Z,8.80
2023-04-06T09:45:36.042Z,7.57
2023-04-06T09:46:59.630Z,6.53
2023-04-06T09:48:02.398Z,6.63
2023-04-06T09:49:04.846Z,5.33
2023-04-06T09:50:08.377Z,6.40
2023-04-06T09:51:15.394Z,6.87
2023-04-06T09:52:19.026Z,5.83
2023-04-06T09:53:21.357Z,6.60
2023-04-06T09:54:24.397Z,4.97
2023-04-06T09:55:38.606Z,5.70
2023-04-06T09:57:03.601Z,4.57
2023-04-06T09:58:07.662Z,5.00
2023-04-06T09:59:15.668Z,7.73
2023-04-06T10:00:22.079Z,5.77
2023-04-06T10:01:29.207Z,6.67
2023-04-06T10:02:42.384Z,6.50
2023-04-06T10:04:00.372Z,5.30
2023-04-06T10:05:13.896Z,5.20
2023-04-06T10:06:19.980Z,7.27
2023-04-06T10:07:22.083Z,7.20
2023-04-06T10:08:26.467Z,5.63
2023-04-06T10:09:36.492Z,7.17
2023-04-06T10:10:38.936Z,5.57
2023-04-06T10:11:40.762Z,5.30
2023-04-06T10:12:43.181Z,6.03
2023-04-06T10:13:48.187Z,5.57
2023-04-06T10:14:50.378Z,5.30
2023-04-06T10:15:53.368Z,7.30
2023-04-06T10:16:55.274Z,7.40
2023-04-06T10:17:58.645Z,6.40
2023-04-06T10:19:14.224Z,5.63
2023-04-06T10:20:24.722Z,5.90
2023-04-06T10:21:28.585Z,6.00
2023-04-06T10:22:55.219Z,5.87
2023-04-06T10:24:01.856Z,6.43
2023-04-06T10:25:03.918Z,5.90
2023-04-06T10:26:05.644Z,5.53
2023-04-06T10:27:09.518Z,6.23
2023-04-06T10:28:12.472Z,7.40
2023-04-06T10:29:14.057Z,5.60
2023-04-06T10:30:17.074Z,6.23
2023-04-06T10:31:28.973Z,5.50
2023-04-06T10:32:40.118Z,4.70
2023-04-06T10:33:42.295Z,5.80
2023-04-06T10:34:43.860Z,6.00
2023-04-06T10:35:46.158Z,5.53
2023-04-06T10:36:47.849Z,5.80
2023-04-06T10:38:04.663Z,5.70
2023-04-06T10:39:07.490Z,6.00
2023-04-06T10:40:28.820Z,5.67
2023-04-06T10:41:56.441Z,6.57
2023-04-06T10:43:21.893Z,4.97
2023-04-06T10:44:25.185Z,6.43
2023-04-06T10:45:27.490Z,5.97
2023-04-06T10:46:31.537Z,5.23
2023-04-06T10:47:41.155Z,7.00
2023-04-06T10:48:46.638Z,5.70
2023-04-06T10:49:48.242Z,7.67
2023-04-06T10:50:51.674Z,5.10
2023-04-06T10:51:55.610Z,5.57
2023-04-06T10:53:03.984Z,5.40
2023-04-06T10:54:07.414Z,5.73
2023-04-06T10:55:11.485Z,5.47
2023-04-06T10:56:15.607Z,5.30
2023-04-06T10:57:17.125Z,5.73
2023-04-06T10:58:19.304Z,5.47
2023-04-06T10:59:22.573Z,5.20
2023-04-06T11:00:26.126Z,5.30
2023-04-06T11:01:32.575Z,6.07
2023-04-06T11:02:34.450Z,5.30
2023-04-06T11:03:44.357Z,5.43
2023-04-06T11:04:55.265Z,6.23
2023-04-06T11:05:57.009Z,5.97
2023-04-06T11:06:59.023Z,6.07
2023-04-06T11:08:00.582Z,5.17
2023-04-06T11:09:02.252Z,6.13
2023-04-06T11:10:15.526Z,6.10
2023-04-06T11:11:21.276Z,4.80
2023-04-06T11:12:30.084Z,5.43
2023-04-06T11:14:00.747Z,5.10
2023-04-06T11:15:07.611Z,4.90
2023-04-06T11:16:21.955Z,5.57
2023-04-06T11:17:27.519Z,5.77
2023-04-06T11:18:29.128Z,5.20
2023-04-06T11:19:32.793Z,5.00
2023-04-06T11:20:34.620Z,6.43
2023-04-06T11:21:50.427Z,5.67
2023-04-06T11:22:55.107Z,5.00
2023-04-06T11:24:08.881Z,5.77
2023-04-06T11:26:17.186Z,5.77
2023-04-06T11:27:20.370Z,5.23
2023-04-06T11:28:22.207Z,4.63
2023-04-06T11:29:29.013Z,6.13
2023-04-06T11:30:31.374Z,5.67
2023-04-06T11:31:33.072Z,6.97
2023-04-06T11:32:42.459Z,6.50
2023-04-06T11:33:44.048Z,6.20
2023-04-06T11:34:48.301Z,5.87
2023-04-06T11:35:50.096Z,5.80
2023-04-06T11:36:59.962Z,5.30
2023-04-06T11:38:05.092Z,6.03
2023-04-06T11:39:06.653Z,5.20
2023-04-06T11:40:09.451Z,5.10
2023-04-06T11:41:11.437Z,5.30
2023-04-06T11:42:13.039Z,5.33
2023-04-06T11:43:14.584Z,5.37
2023-04-06T11:44:16.458Z,4.50
2023-04-06T11:45:18.040Z,5.13
2023-04-06T11:46:22.432Z,4.77
2023-04-06T11:47:32.032Z,4.30
2023-04-06T11:48:34.503Z,5.63
2023-04-06T11:49:39.540Z,5.80
2023-04-06T11:50:41.388Z,5.33
2023-04-06T11:51:43.019Z,6.00
2023-04-06T11:52:44.751Z,4.53
2023-04-06T11:53:49.262Z,5.33
2023-04-06T11:54:52.389Z,6.53
2023-04-06T11:55:53.951Z,5.90
2023-04-06T11:56:55.980Z,5.67
2023-04-06T11:57:57.562Z,5.93
2023-04-06T11:59:01.012Z,5.20
2023-04-06T12:00:04.156Z,5.27
2023-04-06T12:01:06.052Z,5.27
2023-04-06T12:02:08.101Z,4.83
2023-04-06T12:03:09.830Z,6.87
2023-04-06T12:04:11.505Z,5.10
2023-04-06T12:05:13.133Z,6.27
2023-04-06T12:06:15.603Z,7.70
2023-04-06T12:07:17.208Z,6.67
2023-04-06T12:08:18.779Z,6.00
2023-04-06T12:09:20.725Z,6.00
2023-04-06T12:10:22.266Z,5.97
2023-04-06T12:11:24.209Z,5.83
2023-04-06T12:12:25.898Z,6.87
2023-04-06T12:13:28.459Z,6.33
2023-04-06T12:14:31.762Z,7.77
2023-04-06T12:15:33.435Z,6.50
2023-04-06T12:16:36.068Z,7.17
2023-04-06T12:17:38.020Z,5.70
2023-04-06T12:18:39.723Z,5.83
2023-04-06T12:19:41.599Z,6.63
2023-04-06T12:20:43.124Z,5.80
2023-04-06T12:21:44.712Z,6.00
2023-04-06T12:22:46.435Z,7.47
2023-04-06T12:23:48.127Z,6.93
2023-04-06T12:24:49.762Z,6.30
2023-04-06T12:25:51.568Z,6.33
2023-04-06T12:27:02.654Z,6.83
2023-04-06T12:28:10.639Z,7.53
2023-04-06T12:29:14.145Z,6.70
2023-04-06T12:30:16.084Z,5.60
2023-04-06T12:31:19.049Z,6.53
2023-04-06T12:32:20.669Z,6.83
2023-04-06T12:33:22.517Z,7.07
2023-04-06T12:34:24.189Z,7.33
2023-04-06T12:35:26.134Z,7.60
2023-04-06T12:36:27.773Z,6.90
2023-04-06T12:37:29.313Z,5.80
2023-04-06T12:38:31.313Z,6.43
2023-04-06T12:39:32.933Z,9.50
2023-04-06T12:40:39.165Z,7.27
2023-04-06T12:41:42.170Z,6.60
2023-04-06T12:42:43.787Z,7.47
2023-04-06T12:43:46.014Z,6.80
2023-04-06T12:44:48.191Z,6.33
2023-04-06T12:45:49.737Z,7.47
2023-04-06T12:46:51.473Z,8.73
2023-04-06T12:47:53.127Z,7.33
2023-04-06T12:48:56.008Z,7.87
2023-04-06T12:49:57.662Z,8.77
2023-04-06T12:51:01.476Z,7.80
2023-04-06T12:52:03.952Z,7.40
2023-04-06T12:53:05.638Z,7.40
2023-04-06T12:54:07.580Z,6.43
2023-04-06T12:55:09.718Z,6.57
2023-04-06T12:56:16.606Z,8.00
2023-04-06T12:57:18.387Z,8.13
2023-04-06T12:58:20.442Z,7.97
2023-04-06T12:59:22.079Z,10.73
2023-04-06T13:00:24.211Z,7.63
2023-04-06T13:01:27.651Z,8.10
2023-04-06T13:02:29.401Z,7.23
2023-04-06T13:03:31.672Z,7.57
2023-04-06T13:04:33.586Z,8.80
2023-04-06T13:05:35.371Z,6.17
2023-04-06T13:06:36.998Z,7.87
2023-04-06T13:07:38.565Z,8.07
2023-04-06T13:08:41.111Z,8.73
2023-04-06T13:09:43.047Z,7.73
2023-04-06T13:10:49.151Z,7.97
2023-04-06T13:11:50.708Z,8.50
2023-04-06T13:12:52.324Z,10.20
2023-04-06T13:13:53.891Z,7.30
2023-04-06T13:14:55.668Z,7.70
2023-04-06T13:16:08.669Z,8.50
2023-04-06T13:17:10.819Z,9.97
2023-04-06T13:18:12.642Z,8.60
2023-04-06T13:19:14.257Z,10.43
2023-04-06T13:20:15.818Z,11.13
2023-04-06T13:21:17.798Z,9.33
2023-04-06T13:22:19.431Z,9.73
2023-04-06T13:23:21.251Z,11.37
2023-04-06T13:24:24.135Z,10.07
2023-04-06T13:25:25.717Z,8.80
2023-04-06T13:26:27.404Z,7.03
2023-04-06T13:27:28.976Z,7.50
2023-04-06T13:28:31.485Z,7.70
2023-04-06T13:29:33.074Z,8.07
2023-04-06T13:30:34.598Z,7.10
2023-04-06T13:31:36.529Z,7.40
2023-04-06T13:32:38.291Z,6.67
2023-04-06T13:33:41.785Z,7.67
2023-04-06T13:34:45.959Z,6.30
2023-04-06T13:35:47.680Z,7.97
2023-04-06T13:36:49.573Z,6.97
2023-04-06T13:37:53.187Z,7.57
2023-04-06T13:38:56.477Z,8.23
2023-04-06T13:39:58.075Z,8.93
2023-04-06T13:40:59.700Z,7.77
2023-04-06T13:42:02.745Z,8.73
2023-04-06T13:43:05.006Z,6.93